Time;durP1;ratioP1;P1;durP2;ratioP2;P2;SDS_P1;SDS_P2;PMS_P1;PMS_P2;Temp;Humidity;BMP_temperature;BMP_pressure;BME280_temperature;BME280_humidity;BME280_pressure;Samples;Min_cycle;Max_cycle;Signal;HPM_P1;HPM_P2
2021/01/29 00:00:43;;;;;;;1.60;0.70;;;11.60;96.10;;;11.29;90.72;96970.91;5061206;28;20680;-75
2021/01/29 00:03:15;;;;;;;3.20;0.87;;;11.60;96.10;;;11.32;90.16;96971.44;5068847;28;20620;-75
2021/01/29 00:05:51;;;;;;;1.77;0.93;;;11.70;96.10;;;11.33;90.88;96967.03;5065848;28;20631;-75
2021/01/29 00:08:21;;;;;;;0.97;0.70;;;11.70;96.00;;;11.35;89.53;96960.72;5058597;28;20621;-75
2021/01/29 00:10:55;;;;;;;3.60;1.80;;;11.70;96.00;;;11.35;91.26;96962.50;5057654;28;20622;-75
2021/01/29 00:13:25;;;;;;;1.93;0.87;;;11.70;95.90;;;11.37;90.17;96950.97;5053325;28;21206;-75
2021/01/29 00:15:54;;;;;;;2.03;1.07;;;11.80;95.90;;;11.36;90.53;96941.47;5065449;28;20620;-75
2021/01/29 00:18:23;;;;;;;1.40;0.87;;;11.70;95.70;;;11.37;89.45;96934.50;5054459;28;20631;-75
2021/01/29 00:20:51;;;;;;;1.50;1.00;;;11.70;95.60;;;11.35;90.77;96937.22;5051686;28;20710;-75
2021/01/29 00:23:19;;;;;;;3.20;1.90;;;11.70;95.60;;;11.36;90.88;96933.66;5072536;28;21022;-75
2021/01/29 00:25:49;;;;;;;3.77;1.70;;;11.70;95.60;;;11.38;89.31;96929.13;5058471;28;21014;-75
2021/01/29 00:28:19;;;;;;;5.60;3.10;;;11.80;95.60;;;11.43;89.83;96929.53;5064263;28;20655;-75
2021/01/29 00:30:49;;;;;;;15.27;6.23;;;11.80;95.50;;;11.42;88.81;96921.84;5066887;28;20622;-75
2021/01/29 00:33:21;;;;;;;13.70;5.80;;;11.80;95.40;;;11.42;89.85;96917.44;5058009;28;20663;-75
2021/01/29 00:35:48;;;;;;;2.07;1.10;;;11.80;95.40;;;11.37;89.65;96914.41;5063559;28;20980;-75
2021/01/29 00:38:16;;;;;;;5.33;1.87;;;11.80;95.30;;;11.33;90.06;96907.81;5068407;28;20639;-75
2021/01/29 00:40:44;;;;;;;10.87;4.50;;;11.60;95.30;;;11.28;88.73;96904.00;5060410;28;20750;-75
2021/01/29 00:43:11;;;;;;;2.60;1.53;;;11.60;95.40;;;11.26;89.58;96900.72;5071401;28;20616;-75
2021/01/29 00:45:41;;;;;;;3.50;1.70;;;11.60;95.60;;;11.23;90.21;96900.13;5068417;28;20689;-75
2021/01/29 00:48:10;;;;;;;27.77;11.60;;;11.50;95.60;;;11.16;89.90;96904.28;5059754;28;20636;-75
2021/01/29 00:50:39;;;;;;;4.07;1.73;;;11.50;95.70;;;11.16;90.74;96893.84;5065662;28;20631;-75
2021/01/29 00:53:09;;;;;;;15.50;6.47;;;11.50;96.10;;;11.16;89.28;96884.22;5057960;28;20648;-75
2021/01/29 00:55:38;;;;;;;3.90;1.80;;;11.50;95.80;;;11.19;89.78;96888.34;5085610;28;21183;-75
2021/01/29 00:58:12;;;;;;;1.23;0.70;;;11.50;95.80;;;11.23;91.14;96880.09;5060073;28;20655;-75
2021/01/29 01:00:39;;;;;;;1.83;1.00;;;11.60;95.80;;;11.26;90.16;96879.81;5064537;28;20675;-75
2021/01/29 01:03:13;;;;;;;1.60;0.87;;;11.60;95.70;;;11.29;90.45;96869.13;5051193;28;20656;-75
2021/01/29 01:05:43;;;;;;;2.73;1.27;;;11.60;95.60;;;11.31;88.65;96875.00;5057446;28;20616;-75
2021/01/29 01:08:16;;;;;;;3.80;1.90;;;11.60;95.60;;;11.32;88.87;96869.66;5066414;28;20656;-75
2021/01/29 01:10:51;;;;;;;3.03;1.73;;;11.70;95.50;;;11.35;89.82;96864.16;5060748;28;20636;-75
2021/01/29 01:13:39;;;;;;;2.17;1.03;;;11.70;95.80;;;11.35;89.50;96858.09;5052807;28;20617;-75
2021/01/29 01:16:36;;;;;;;1.50;0.90;;;11.70;95.20;;;11.31;88.95;96854.13;5044404;28;20624;-75
2021/01/29 01:19:10;;;;;;;1.30;0.90;;;11.60;95.00;;;11.23;88.00;96843.56;5055330;28;20635;-75
2021/01/29 01:21:50;;;;;;;3.43;2.00;;;11.60;94.80;;;11.17;88.13;96836.28;5060353;28;20656;-75
2021/01/29 01:24:39;;;;;;;1.70;1.33;;;11.50;95.00;;;11.06;88.97;96833.81;5063038;28;20627;-75
2021/01/29 01:27:11;;;;;;;2.60;1.40;;;11.40;95.20;;;10.96;90.12;96824.34;5056577;28;20695;-75
2021/01/29 01:29:59;;;;;;;2.87;1.43;;;11.30;95.60;;;10.80;92.80;96818.06;5059129;28;20963;-75
2021/01/29 01:32:27;;;;;;;1.70;1.20;;;11.20;96.40;;;10.70;92.02;96815.41;5052748;28;20627;-75
2021/01/29 01:35:15;;;;;;;2.53;0.97;;;11.10;96.90;;;10.62;93.17;96809.25;5058676;28;21004;-75
2021/01/29 01:37:44;;;;;;;3.13;1.30;;;10.90;97.50;;;10.58;94.56;96803.47;5059285;28;20617;-75
2021/01/29 01:40:27;;;;;;;2.23;1.00;;;10.90;97.90;;;10.57;95.06;96795.78;5055420;28;21055;-75
2021/01/29 01:42:56;;;;;;;1.83;1.30;;;10.80;98.30;;;10.50;95.74;96790.31;5058962;28;21217;-76
2021/01/29 01:46:12;;;;;;;3.30;1.30;;;10.80;98.60;;;10.46;95.16;96798.53;5062724;28;20755;-75
2021/01/29 01:48:58;;;;;;;1.23;1.00;;;10.70;98.90;;;10.43;96.25;96790.97;5064712;28;20619;-75
2021/01/29 01:51:51;;;;;;;2.10;1.03;;;10.70;99.20;;;10.39;95.83;96781.81;5070058;28;20620;-75
2021/01/29 01:54:27;;;;;;;1.10;0.90;;;10.70;99.50;;;10.37;96.17;96773.28;5053012;28;20633;-75
2021/01/29 01:56:58;;;;;;;1.50;1.00;;;10.60;99.60;;;10.40;97.24;96759.97;5059642;28;21019;-75
2021/01/29 01:59:33;;;;;;;2.40;0.90;;;10.70;99.80;;;10.39;96.98;96764.38;5062672;28;20674;-75
2021/01/29 02:02:25;;;;;;;1.30;0.93;;;10.70;99.80;;;10.41;96.70;96769.44;5057784;28;20664;-75
2021/01/29 02:05:19;;;;;;;1.70;0.90;;;10.70;99.90;;;10.50;96.53;96756.41;5056637;28;20632;-75
2021/01/29 02:08:12;;;;;;;1.77;0.90;;;10.80;99.90;;;10.56;97.30;96763.69;5047545;28;22131;-75
2021/01/29 02:11:00;;;;;;;1.63;0.90;;;10.90;99.80;;;10.61;96.97;96758.88;5058863;28;20627;-75
2021/01/29 02:13:48;;;;;;;1.17;0.97;;;10.90;99.90;;;10.70;96.24;96762.47;5063509;28;20658;-75
2021/01/29 02:16:44;;;;;;;1.47;1.10;;;11.00;99.70;;;10.72;96.44;96734.44;5052235;28;20655;-75
2021/01/29 02:20:05;;;;;;;1.77;1.00;;;11.10;99.60;;;10.66;95.55;96735.00;5063721;28;21214;-75
2021/01/29 02:23:18;;;;;;;2.30;1.07;;;11.00;99.40;;;10.64;96.71;96742.16;5038283;28;21045;-75
2021/01/29 02:27:04;;;;;;;1.53;1.03;;;11.00;99.50;;;10.49;97.61;96731.34;5064417;28;21215;-75
2021/01/29 02:30:15;;;;;;;3.13;1.37;;;10.90;99.80;;;10.37;97.61;96713.34;5038701;28;20644;-75
2021/01/29 02:34:00;;;;;;;2.20;1.30;;;10.70;99.90;;;10.40;98.43;96706.09;5032602;28;20640;-75
2021/01/29 02:37:27;;;;;;;2.03;1.50;;;10.70;99.90;;;10.50;98.08;96700.88;5071968;28;20623;-75
2021/01/29 02:40:33;;;;;;;1.40;1.20;;;10.80;99.90;;;10.51;98.63;96697.31;5050532;28;20732;-75
2021/01/29 02:43:32;;;;;;;2.10;1.20;;;10.80;99.90;;;10.56;97.10;96682.06;5058915;28;20738;-75
2021/01/29 02:46:35;;;;;;;2.57;1.30;;;10.90;99.90;;;10.59;98.00;96684.41;5066877;28;20628;-75
2021/01/29 02:49:32;;;;;;;1.93;1.40;;;10.90;99.90;;;10.62;97.45;96686.72;5059315;28;20632;-75
2021/01/29 02:52:24;;;;;;;1.50;1.40;;;11.00;99.90;;;10.64;98.30;96667.34;5066416;28;20738;-75
2021/01/29 02:55:22;;;;;;;2.23;1.60;;;10.90;99.90;;;10.69;97.18;96666.94;5065334;28;20632;-75
2021/01/29 02:58:11;;;;;;;1.93;1.67;;;11.00;99.90;;;10.68;97.57;96657.50;5072880;28;21164;-75
2021/01/29 03:01:07;;;;;;;2.03;1.43;;;11.00;99.90;;;10.66;98.11;96652.41;5065169;28;20658;-75
2021/01/29 03:03:42;;;;;;;1.90;1.67;;;11.00;99.90;;;10.69;98.39;96640.88;5061764;28;20640;-75
2021/01/29 03:06:48;;;;;;;1.70;1.53;;;11.00;99.90;;;10.73;97.03;96629.19;5058177;28;20623;-75
2021/01/29 03:09:24;;;;;;;2.00;1.70;;;11.00;99.90;;;10.73;96.96;96630.00;5072508;28;20903;-75
2021/01/29 03:12:16;;;;;;;1.83;1.70;;;11.10;99.90;;;10.74;97.25;96629.06;5067215;28;20720;-75
2021/01/29 03:15:14;;;;;;;1.67;1.57;;;11.10;99.80;;;10.76;96.59;96624.50;5065141;28;21168;-75
2021/01/29 03:18:17;;;;;;;3.93;1.50;;;11.10;99.60;;;10.77;96.01;96623.56;5061552;28;20793;-75
2021/01/29 03:21:09;;;;;;;1.47;1.30;;;11.10;99.60;;;10.79;96.57;96623.44;5062593;28;21141;-75
2021/01/29 03:23:59;;;;;;;4.80;1.77;;;11.10;99.50;;;10.80;96.98;96625.06;5060928;28;20616;-75
2021/01/29 03:26:52;;;;;;;2.10;1.10;;;11.10;99.50;;;10.71;95.82;96618.09;5057448;28;20668;-75
2021/01/29 03:29:44;;;;;;;4.63;1.27;;;11.10;99.30;;;10.67;96.45;96608.91;5067930;28;20619;-75
2021/01/29 03:32:34;;;;;;;1.57;1.10;;;11.00;99.30;;;10.68;96.77;96602.75;5056723;28;20631;-75
2021/01/29 03:35:27;;;;;;;0.90;0.80;;;11.00;99.40;;;10.66;96.31;96591.63;5058503;28;20624;-75
2021/01/29 03:38:19;;;;;;;1.13;0.83;;;11.00;99.30;;;10.62;95.33;96595.47;5061265;28;20684;-75
2021/01/29 03:41:29;;;;;;;1.20;0.90;;;10.90;99.20;;;10.56;95.88;96583.81;5082883;28;20751;-75
2021/01/29 03:44:22;;;;;;;1.10;0.80;;;10.90;99.40;;;10.49;96.67;96580.16;5080574;28;20632;-75
2021/01/29 03:47:21;;;;;;;2.73;0.83;;;10.80;99.50;;;10.40;96.64;96573.19;5059266;28;21194;-74
2021/01/29 03:50:16;;;;;;;0.93;0.67;;;10.70;99.60;;;10.35;96.71;96561.53;5060589;28;20620;-74
2021/01/29 03:53:22;;;;;;;0.70;0.50;;;10.70;99.80;;;10.33;96.13;96560.84;5070254;28;20815;-74
2021/01/29 03:56:27;;;;;;;2.27;1.23;;;10.60;99.90;;;10.29;97.16;96559.47;5054573;28;20991;-74
2021/01/29 03:59:25;;;;;;;0.70;0.50;;;10.60;99.90;;;10.20;97.59;96557.72;5061969;28;20639;-74
2021/01/29 04:02:20;;;;;;;2.83;0.80;;;10.50;99.90;;;10.17;98.17;96550.19;5064966;28;20762;-74
2021/01/29 04:05:21;;;;;;;1.10;0.77;;;10.50;99.90;;;10.17;98.19;96541.56;5055912;28;20681;-74
2021/01/29 04:08:14;;;;;;;1.13;0.90;;;10.40;99.90;;;10.16;97.28;96529.47;5054613;28;20631;-74
2021/01/29 04:11:28;;;;;;;0.80;0.50;;;10.40;99.90;;;10.16;98.00;96532.91;5046953;28;21209;-74
2021/01/29 04:14:35;;;;;;;0.97;0.50;;;10.40;99.90;;;10.19;98.14;96530.00;5011859;28;20644;-74
2021/01/29 04:17:12;;;;;;;0.90;0.70;;;10.50;99.90;;;10.13;98.45;96530.59;5053421;28;20639;-74
2021/01/29 04:19:42;;;;;;;0.80;0.60;;;10.40;99.90;;;10.17;98.36;96525.94;5072931;28;20611;-74
2021/01/29 04:22:19;;;;;;;2.60;0.70;;;10.40;99.90;;;10.11;97.44;96519.47;5066721;28;20687;-74
2021/01/29 04:24:56;;;;;;;2.03;0.80;;;10.40;99.90;;;10.09;98.27;96518.81;5056248;28;20708;-74
2021/01/29 04:27:30;;;;;;;1.33;0.70;;;10.30;99.90;;;10.09;98.78;96511.00;5068483;28;20661;-74
2021/01/29 04:30:05;;;;;;;1.20;0.80;;;10.40;99.90;;;10.08;98.41;96514.56;5066385;28;20741;-74
2021/01/29 04:32:38;;;;;;;1.07;0.80;;;10.40;99.90;;;10.07;99.69;96512.09;5063438;28;21039;-74
2021/01/29 04:35:10;;;;;;;0.90;0.77;;;10.30;99.90;;;10.09;98.99;96503.19;5065798;28;20620;-74
2021/01/29 04:37:50;;;;;;;0.73;0.67;;;10.30;99.90;;;10.12;99.65;96489.88;5052997;28;20631;-74
2021/01/29 04:40:29;;;;;;;1.03;0.60;;;10.40;99.90;;;10.13;99.91;96488.94;5061061;28;20677;-74
2021/01/29 04:43:33;;;;;;;1.10;0.63;;;10.40;99.90;;;10.16;99.64;96486.00;5067461;28;20993;-74
2021/01/29 04:46:20;;;;;;;1.40;0.90;;;10.40;99.90;;;10.24;98.99;96469.66;5064649;28;20635;-74
2021/01/29 04:48:55;;;;;;;0.70;0.60;;;10.50;99.90;;;10.27;98.04;96465.03;5059276;28;20633;-74
2021/01/29 04:52:01;;;;;;;1.20;0.70;;;10.50;99.90;;;10.27;97.71;96449.38;5061197;28;20630;-74
2021/01/29 04:54:43;;;;;;;2.60;0.70;;;10.60;99.90;;;10.33;97.56;96443.59;5053498;28;20635;-74
2021/01/29 04:57:47;;;;;;;3.83;0.80;;;10.60;99.90;;;10.37;97.25;96427.53;5055147;28;20640;-74
2021/01/29 05:00:53;;;;;;;0.80;0.57;;;10.70;99.90;;;10.44;97.47;96422.56;5063496;28;20738;-74
2021/01/29 05:04:03;;;;;;;0.70;0.60;;;10.80;99.90;;;10.49;97.04;96418.56;5060489;28;20633;-74
2021/01/29 05:07:24;;;;;;;1.03;0.57;;;10.80;99.90;;;10.49;95.60;96404.69;5066446;28;20628;-74
2021/01/29 05:10:48;;;;;;;1.10;0.60;;;10.80;99.60;;;10.51;96.48;96405.41;5053606;28;20636;-74
2021/01/29 05:13:42;;;;;;;0.90;0.50;;;10.90;99.60;;;10.53;94.81;96399.06;5063404;28;20635;-74
2021/01/29 05:16:46;;;;;;;1.40;0.60;;;10.90;99.40;;;10.53;96.07;96387.81;5053662;28;20689;-74
2021/01/29 05:19:58;;;;;;;1.80;0.60;;;10.90;99.60;;;10.56;95.47;96393.53;5060811;28;20730;-74
2021/01/29 05:22:56;;;;;;;0.60;0.40;;;10.90;99.10;;;10.63;95.28;96383.34;5061934;28;21072;-74
2021/01/29 05:26:12;;;;;;;0.87;0.53;;;10.90;99.00;;;10.64;95.44;96371.97;5051689;28;20643;-74
2021/01/29 05:29:08;;;;;;;1.13;0.50;;;11.00;98.90;;;10.64;94.52;96367.56;5061904;28;20628;-74
2021/01/29 05:31:58;;;;;;;0.63;0.50;;;11.00;98.80;;;10.62;94.21;96360.88;5064860;28;20620;-74
2021/01/29 05:35:03;;;;;;;0.80;0.40;;;10.90;98.50;;;10.69;93.03;96356.69;5051760;28;20656;-74
2021/01/29 05:38:10;;;;;;;0.60;0.40;;;11.00;98.50;;;10.60;93.97;96360.19;5019528;28;20664;-74
2021/01/29 05:41:08;;;;;;;0.77;0.40;;;11.00;98.30;;;10.53;95.39;96352.13;5051274;28;21016;-74
2021/01/29 05:44:13;;;;;;;0.73;0.50;;;10.90;98.50;;;10.48;94.56;96337.94;5055434;28;20637;-74
2021/01/29 05:46:53;;;;;;;0.93;0.50;;;10.80;98.70;;;10.44;95.86;96332.16;5051179;28;20688;-74
2021/01/29 05:49:24;;;;;;;1.03;0.60;;;10.80;98.90;;;10.44;94.79;96337.38;5070654;28;21103;-74
2021/01/29 05:52:34;;;;;;;1.07;0.43;;;10.70;99.00;;;10.43;95.74;96335.75;5057062;28;21188;-74
2021/01/29 05:55:38;;;;;;;0.83;0.47;;;10.70;99.10;;;10.41;95.47;96316.00;5060502;28;21025;-74
2021/01/29 05:58:50;;;;;;;0.70;0.40;;;10.70;99.20;;;10.36;96.95;96315.63;5070882;28;20704;-74
2021/01/29 06:02:08;;;;;;;1.93;0.63;;;10.70;99.40;;;10.32;96.31;96311.69;5058190;28;21269;-74
2021/01/29 06:05:15;;;;;;;3.93;1.00;;;10.60;99.60;;;10.38;96.28;96324.13;5063747;28;20632;-74
2021/01/29 06:08:26;;;;;;;1.10;0.50;;;10.70;99.70;;;10.43;95.72;96308.84;5038146;28;20630;-74
2021/01/29 06:11:26;;;;;;;1.00;0.70;;;10.70;99.70;;;10.40;96.78;96302.16;5058461;28;20674;-74
2021/01/29 06:14:47;;;;;;;0.70;0.47;;;10.80;99.80;;;10.36;96.03;96305.22;5063555;28;20630;-74
2021/01/29 06:17:56;;;;;;;1.10;0.60;;;10.70;99.70;;;10.36;96.23;96303.41;5058082;28;20631;-74
2021/01/29 06:21:16;;;;;;;2.13;0.70;;;10.70;99.60;;;10.29;96.37;96301.56;5068488;28;20651;-74
2021/01/29 06:24:33;;;;;;;1.00;0.50;;;10.60;99.60;;;10.16;97.35;96324.50;5054437;28;20674;-74
2021/01/29 06:27:30;;;;;;;1.80;0.70;;;10.50;99.80;;;10.21;97.34;96332.72;5054563;28;20664;-74
2021/01/29 06:30:31;;;;;;;1.10;0.67;;;10.50;99.90;;;10.25;97.29;96339.28;5065187;28;20642;-74
2021/01/29 06:33:31;;;;;;;0.73;0.50;;;10.60;99.90;;;10.13;97.42;96348.28;5070719;28;20628;-74
2021/01/29 06:36:13;;;;;;;0.90;0.60;;;10.40;99.80;;;9.93;98.12;96348.47;5054700;28;20636;-74
2021/01/29 06:39:07;;;;;;;1.00;0.70;;;10.30;99.90;;;9.88;99.44;96355.88;5069377;28;21240;-74
2021/01/29 06:42:32;;;;;;;1.47;0.60;;;10.20;99.90;;;9.84;99.39;96364.94;5057643;28;20679;-74
2021/01/29 06:45:27;;;;;;;0.67;0.50;;;10.10;99.90;;;9.88;99.53;96374.94;5032892;28;20639;-74
2021/01/29 06:48:39;;;;;;;0.73;0.53;;;10.20;99.90;;;9.97;98.28;96362.88;5061997;28;21194;-74
2021/01/29 06:51:56;;;;;;;0.63;0.40;;;10.20;99.90;;;9.88;99.35;96364.50;5048531;28;21151;-74
2021/01/29 06:55:08;;;;;;;0.87;0.40;;;10.10;99.90;;;9.93;99.13;96361.47;5064410;28;20990;-74
2021/01/29 06:58:35;;;;;;;0.70;0.40;;;10.20;99.90;;;9.90;98.80;96353.94;5060737;28;20634;-74
2021/01/29 07:01:50;;;;;;;1.00;0.40;;;10.20;99.90;;;9.96;98.67;96345.59;5054256;28;20652;-74
2021/01/29 07:05:12;;;;;;;1.00;0.53;;;10.30;99.90;;;9.93;99.48;96362.31;5063232;28;20623;-74
2021/01/29 07:08:16;;;;;;;2.13;1.10;;;10.20;99.90;;;9.90;98.96;96372.19;5052762;28;20730;-74
2021/01/29 07:10:58;;;;;;;0.90;0.53;;;10.20;99.90;;;9.92;99.60;96362.44;5056702;28;20635;-74
2021/01/29 07:13:47;;;;;;;0.67;0.50;;;10.20;99.90;;;9.95;98.50;96376.03;5059421;28;20628;-74
2021/01/29 07:16:38;;;;;;;0.60;0.40;;;10.20;99.90;;;10.09;97.96;96383.38;5059603;28;20684;-73
2021/01/29 07:19:37;;;;;;;1.67;0.40;;;10.40;99.90;;;10.17;95.55;96374.84;5055051;28;20629;-74
2021/01/29 07:22:51;;;;;;;0.80;0.60;;;10.50;99.90;;;10.27;94.35;96386.88;5055590;28;20668;-74
2021/01/29 07:25:28;;;;;;;0.50;0.30;;;10.50;99.30;;;10.27;93.99;96386.88;5060314;28;20688;-74
2021/01/29 07:28:13;;;;;;;0.50;0.30;;;10.60;98.90;;;10.25;93.11;96383.56;5062840;28;20655;-74
2021/01/29 07:31:15;;;;;;;0.60;0.40;;;10.60;98.50;;;10.35;91.89;96386.94;5057445;28;20729;-74
2021/01/29 07:33:53;;;;;;;0.87;0.40;;;10.60;97.60;;;10.43;92.66;96394.84;5058224;28;20660;-74
2021/01/29 07:36:52;;;;;;;1.27;0.40;;;10.70;97.50;;;10.43;91.82;96400.91;5058707;28;20627;-74
2021/01/29 07:40:05;;;;;;;1.10;0.67;;;10.80;97.30;;;10.42;90.89;96417.50;5054584;28;20616;-74
2021/01/29 07:43:18;;;;;;;0.90;0.50;;;10.70;96.80;;;10.51;91.52;96416.63;5014500;28;20651;-74
2021/01/29 07:46:04;;;;;;;0.90;0.50;;;10.80;96.80;;;10.53;91.61;96411.28;5058792;28;20635;-75
2021/01/29 07:49:22;;;;;;;0.60;0.40;;;10.80;96.90;;;10.56;90.74;96424.81;5068230;28;20623;-75
2021/01/29 07:51:56;;;;;;;1.00;0.67;;;10.90;96.90;;;10.54;90.63;96413.72;5070673;28;20636;-75
2021/01/29 07:54:54;;;;;;;0.83;0.60;;;10.90;96.70;;;10.61;91.63;96419.19;5056790;28;20652;-74
2021/01/29 07:58:07;;;;;;;1.47;0.60;;;10.90;96.70;;;10.67;90.52;96421.19;5061511;28;21492;-74
2021/01/29 08:00:56;;;;;;;1.00;0.50;;;11.00;96.60;;;10.72;90.63;96418.97;5057828;28;20663;-75
2021/01/29 08:04:13;;;;;;;0.73;0.50;;;11.00;96.50;;;10.67;89.75;96411.59;5062236;28;20671;-75
2021/01/29 08:06:53;;;;;;;2.10;1.07;;;11.00;96.20;;;10.71;89.50;96410.34;5060264;28;20684;-72
2021/01/29 08:09:27;;;;;;;1.67;0.97;;;11.00;96.10;;;10.79;88.94;96418.22;5057485;28;20624;-72
2021/01/29 08:12:03;;;;;;;1.97;0.60;;;11.00;95.90;;;10.85;88.35;96410.66;5057555;28;20728;-72
2021/01/29 08:15:02;;;;;;;0.80;0.70;;;11.10;95.40;;;10.80;87.85;96422.50;5062058;28;20627;-73
2021/01/29 08:17:58;;;;;;;0.80;0.60;;;11.10;95.30;;;10.90;87.98;96408.44;5061008;28;20638;-72
2021/01/29 08:20:55;;;;;;;1.83;0.60;;;11.20;95.20;;;10.95;87.03;96405.38;5061653;28;20635;-73
2021/01/29 08:23:32;;;;;;;3.30;0.43;;;11.30;95.00;;;10.94;88.26;96419.38;5053969;28;20645;-73
2021/01/29 08:26:26;;;;;;;1.10;0.60;;;11.30;94.80;;;10.94;87.97;96411.53;5062653;28;20627;-73
2021/01/29 08:29:35;;;;;;;1.17;0.63;;;11.20;94.90;;;11.01;87.06;96410.81;5059010;28;20625;-73
2021/01/29 08:33:00;;;;;;;0.80;0.50;;;11.30;94.70;;;10.98;88.01;96410.28;5041246;28;20621;-73
2021/01/29 08:35:47;;;;;;;2.13;0.67;;;11.30;94.40;;;11.05;87.23;96413.94;5068304;28;20690;-73
2021/01/29 08:38:33;;;;;;;0.87;0.63;;;11.40;94.30;;;11.07;86.37;96401.59;5065977;28;21151;-73
2021/01/29 08:41:15;;;;;;;2.13;0.60;;;11.40;94.20;;;11.15;86.97;96409.47;5070329;28;20705;-73
2021/01/29 08:44:12;;;;;;;1.00;0.80;;;11.50;93.80;;;11.21;86.13;96391.41;5064220;28;20697;-73
2021/01/29 08:46:54;;;;;;;1.13;0.50;;;11.50;93.70;;;11.27;85.83;96400.44;5068572;28;21210;-73
2021/01/29 08:50:05;;;;;;;1.27;0.50;;;11.60;93.60;;;11.33;85.93;96400.66;5065574;28;20708;-73
2021/01/29 08:53:28;;;;;;;1.10;0.50;;;11.60;93.70;;;11.43;86.21;96412.66;5052366;28;20621;-74
2021/01/29 08:56:08;;;;;;;0.90;0.50;;;11.70;93.40;;;11.45;85.73;96404.69;5057667;28;20640;-74
2021/01/29 08:58:46;;;;;;;1.10;0.50;;;11.70;93.00;;;11.48;84.47;96414.84;5060057;28;21057;-74
2021/01/29 09:01:23;;;;;;;1.20;0.60;;;11.80;92.60;;;11.43;84.55;96411.84;5061209;28;21216;-74
2021/01/29 09:03:59;;;;;;;1.13;0.50;;;11.70;92.90;;;11.44;84.74;96414.31;5066741;28;20624;-74
2021/01/29 09:06:37;;;;;;;0.80;0.50;;;11.70;92.80;;;11.40;85.85;96419.97;5056690;28;20630;-74
2021/01/29 09:09:09;;;;;;;1.70;0.70;;;11.70;93.10;;;11.39;86.60;96420.94;5054734;28;21160;-74
2021/01/29 09:11:45;;;;;;;2.60;0.60;;;11.70;93.30;;;11.35;86.35;96423.03;5064059;28;20640;-74
2021/01/29 09:14:23;;;;;;;0.70;0.50;;;11.70;93.40;;;11.36;86.79;96431.69;5050685;28;20654;-74
2021/01/29 09:17:01;;;;;;;1.63;0.60;;;11.70;93.50;;;11.41;86.81;96437.25;5058085;28;21158;-74
2021/01/29 09:19:29;;;;;;;1.20;0.67;;;11.70;93.70;;;11.43;85.41;96449.19;5051998;28;20646;-74
2021/01/29 09:22:15;;;;;;;1.20;0.60;;;11.70;93.30;;;11.44;85.44;96437.81;5053633;28;20653;-74
2021/01/29 09:24:53;;;;;;;1.60;0.90;;;11.70;92.80;;;11.43;83.10;96454.44;5066725;28;21222;-74
2021/01/29 09:27:51;;;;;;;1.47;0.77;;;11.70;92.40;;;11.43;84.17;96479.72;5054590;28;20659;-74
2021/01/29 09:30:29;;;;;;;1.50;0.80;;;11.70;91.90;;;11.49;83.94;96471.31;5067812;28;20639;-74
2021/01/29 09:33:02;;;;;;;1.10;0.70;;;11.80;92.10;;;11.49;84.22;96473.94;5057182;28;21163;-74
2021/01/29 09:35:48;;;;;;;1.77;0.80;;;11.80;91.80;;;11.54;83.81;96482.13;5068817;28;20722;-74
2021/01/29 09:38:22;;;;;;;1.90;0.83;;;11.80;91.70;;;11.55;83.87;96473.34;5057478;28;20636;-74
2021/01/29 09:41:04;;;;;;;1.10;0.70;;;11.80;91.60;;;11.54;82.92;96487.34;5061233;28;20689;-74
2021/01/29 09:44:04;;;;;;;3.80;0.70;;;11.80;91.50;;;11.62;81.83;96490.88;5062481;28;20990;-74
2021/01/29 09:46:35;;;;;;;2.10;0.70;;;11.90;91.60;;;11.64;79.16;96493.31;5059083;28;20643;-74
2021/01/29 09:49:09;;;;;;;2.40;0.90;;;11.90;89.80;;;11.72;80.91;96522.13;5060165;28;20636;-74
2021/01/29 09:51:53;;;;;;;2.00;0.83;;;11.90;90.00;;;11.79;78.23;96518.75;5062875;28;20690;-74
2021/01/29 09:54:29;;;;;;;1.90;0.97;;;12.10;87.20;;;11.84;79.70;96530.38;5067297;28;20630;-74
2021/01/29 09:57:03;;;;;;;3.37;1.07;;;12.10;87.20;;;11.91;78.12;96522.78;5055902;28;20648;-74
2021/01/29 09:59:42;;;;;;;2.57;0.87;;;12.20;86.80;;;11.83;77.16;96526.13;5067397;28;20626;-74
2021/01/29 10:02:24;;;;;;;3.77;2.17;;;12.10;86.20;;;11.85;77.96;96529.41;5050408;28;21762;-74
2021/01/29 10:05:26;;;;;;;3.77;0.83;;;12.10;86.90;;;11.79;78.15;96523.97;5052649;28;20762;-74
2021/01/29 10:08:09;;;;;;;1.67;0.93;;;12.10;86.50;;;11.87;77.26;96540.50;5061497;28;20639;-74
2021/01/29 10:10:58;;;;;;;2.60;1.10;;;12.10;86.10;;;11.89;80.59;96520.31;5061519;28;20631;-74
2021/01/29 10:13:55;;;;;;;3.63;1.40;;;12.20;87.30;;;11.78;78.34;96533.56;5054139;28;20636;-74
2021/01/29 10:16:47;;;;;;;1.70;0.90;;;12.10;86.30;;;11.78;80.26;96541.41;5051947;28;21174;-74
2021/01/29 10:19:39;;;;;;;2.60;0.83;;;12.10;86.60;;;11.76;79.75;96542.56;5054890;28;20731;-74
2021/01/29 10:22:41;;;;;;;4.20;0.80;;;12.10;86.70;;;11.78;77.26;96538.00;5053809;28;20648;-74
2021/01/29 10:25:33;;;;;;;2.47;0.80;;;12.10;85.60;;;11.84;76.69;96532.97;5068911;28;20611;-73
2021/01/29 10:28:43;;;;;;;4.73;1.10;;;12.10;85.30;;;11.76;76.63;96537.34;5064489;28;20663;-73
2021/01/29 10:31:14;;;;;;;3.13;1.10;;;12.10;84.30;;;11.99;75.80;96541.94;5062383;28;20627;-74
2021/01/29 10:33:47;;;;;;;3.50;1.90;;;12.20;84.30;;;12.17;75.98;96532.28;5061869;28;20635;-74
2021/01/29 10:36:27;;;;;;;6.27;3.43;;;12.40;84.20;;;12.31;76.62;96534.31;5062123;28;20989;-74
2021/01/29 10:39:03;;;;;;;2.87;0.90;;;12.50;83.60;;;12.41;76.42;96521.97;5055069;28;20623;-74
2021/01/29 10:41:39;;;;;;;5.27;1.00;;;12.60;83.40;;;12.35;75.26;96536.47;5071009;28;20620;-74
2021/01/29 10:44:11;;;;;;;2.67;1.10;;;12.60;82.20;;;12.38;74.75;96540.59;5054510;28;20627;-74
2021/01/29 10:47:12;;;;;;;2.70;1.03;;;12.60;81.90;;;12.44;75.91;96529.53;5064977;28;20620;-74
2021/01/29 10:49:53;;;;;;;2.20;1.07;;;12.70;82.40;;;12.40;73.63;96533.41;5064063;28;20630;-74
2021/01/29 10:52:37;;;;;;;2.83;1.00;;;12.70;79.40;;;12.32;73.40;96531.56;5068819;28;20963;-74
2021/01/29 10:55:20;;;;;;;4.43;1.07;;;12.60;77.60;;;12.19;73.85;96537.34;5074272;28;20658;-74
2021/01/29 10:58:19;;;;;;;4.50;1.20;;;12.60;78.80;;;12.22;75.35;96548.31;5067991;28;20631;-74
2021/01/29 11:00:53;;;;;;;4.47;1.30;;;12.60;79.60;;;12.15;73.31;96549.06;5050689;28;20649;-74
2021/01/29 11:03:53;;;;;;;4.80;1.13;;;12.50;79.40;;;12.16;74.67;96558.56;5061469;28;20662;-74
2021/01/29 11:06:27;;;;;;;3.97;1.30;;;12.40;79.60;;;12.28;74.62;96555.53;5053871;28;20643;-74
2021/01/29 11:08:59;;;;;;;4.37;1.40;;;12.60;80.20;;;12.33;73.88;96555.94;5054683;28;20597;-74
2021/01/29 11:11:36;;;;;;;1.90;0.97;;;12.60;80.00;;;12.36;74.41;96550.38;5060223;28;20635;-74
2021/01/29 11:14:23;;;;;;;5.23;1.23;;;12.60;78.90;;;12.31;73.60;96557.84;5054860;28;20980;-74
2021/01/29 11:17:03;;;;;;;4.33;1.60;;;12.60;78.70;;;12.33;74.78;96561.16;5058210;28;20639;-74
2021/01/29 11:19:36;;;;;;;2.43;1.40;;;12.60;79.10;;;12.35;73.42;96562.63;5054274;28;20611;-74
2021/01/29 11:22:16;;;;;;;3.00;1.23;;;12.60;78.50;;;12.32;73.42;96565.53;5065138;28;21077;-74
2021/01/29 11:25:21;;;;;;;2.77;1.20;;;12.60;78.40;;;12.29;71.81;96550.16;5072632;28;21017;-74
2021/01/29 11:27:58;;;;;;;4.73;1.00;;;12.60;77.10;;;12.36;72.64;96553.00;5054075;28;20659;-74
2021/01/29 11:30:31;;;;;;;2.50;1.10;;;12.70;77.90;;;12.33;71.28;96550.69;5053358;28;20616;-74
2021/01/29 11:33:03;;;;;;;3.10;0.90;;;12.60;76.80;;;12.32;72.46;96555.09;5065328;28;21019;-74
2021/01/29 11:35:47;;;;;;;5.13;1.20;;;12.60;77.10;;;12.31;71.77;96552.63;5064046;28;20690;-74
2021/01/29 11:38:44;;;;;;;2.87;1.20;;;12.60;77.30;;;12.23;74.65;96561.22;5062682;28;20651;-74
2021/01/29 11:41:23;;;;;;;4.43;1.20;;;12.60;78.00;;;12.27;73.84;96562.56;5053375;28;21008;-74
2021/01/29 11:44:04;;;;;;;2.90;1.00;;;12.50;77.90;;;12.29;74.49;96551.97;5064071;28;20626;-74
2021/01/29 11:46:38;;;;;;;5.90;1.07;;;12.50;78.30;;;12.31;74.17;96560.47;5056348;28;20694;-74
2021/01/29 11:49:13;;;;;;;2.93;1.73;;;12.60;79.30;;;12.33;72.16;96551.50;5061917;28;20631;-74
2021/01/29 11:51:55;;;;;;;3.27;1.20;;;12.60;78.00;;;12.45;74.17;96549.47;5062160;28;20635;-74
2021/01/29 11:54:37;;;;;;;6.00;1.60;;;12.70;79.40;;;12.46;71.61;96551.09;5054309;28;20623;-74